createdAt,value
2019-02-12T00:00:00.959Z,1016.62
2019-02-12T00:01:00.945Z,1016.60
2019-02-12T00:02:00.948Z,1016.62
2019-02-12T00:03:00.929Z,1016.55
2019-02-12T00:04:00.931Z,1016.52
2019-02-12T00:05:00.906Z,1016.61
2019-02-12T00:06:00.898Z,1016.59
2019-02-12T00:07:00.885Z,1016.57
2019-02-12T00:08:00.868Z,1016.59
2019-02-12T00:09:00.876Z,1016.71
2019-02-12T00:10:00.851Z,1016.68
2019-02-12T00:11:00.841Z,1016.54
2019-02-12T00:12:00.830Z,1016.63
2019-02-12T00:13:00.821Z,1016.58
2019-02-12T00:14:00.829Z,1016.61
2019-02-12T00:15:00.799Z,1016.51
2019-02-12T00:16:00.790Z,1016.55
2019-02-12T00:17:00.775Z,1016.61
2019-02-12T00:18:00.762Z,1016.54
2019-02-12T00:19:00.776Z,1016.60
2019-02-12T00:20:00.739Z,1016.61
2019-02-12T00:21:08.763Z,1016.60
2019-02-12T00:22:01.720Z,1016.65
2019-02-12T00:23:00.708Z,1016.62
2019-02-12T00:24:00.717Z,1016.61
2019-02-12T00:25:00.700Z,1016.61
2019-02-12T00:26:00.672Z,1016.56
2019-02-12T00:27:00.679Z,1016.55
2019-02-12T00:28:00.646Z,1016.54
2019-02-12T00:29:00.637Z,1016.59
2019-02-12T00:30:00.627Z,1016.57
2019-02-12T00:31:00.621Z,1016.55
2019-02-12T00:32:00.630Z,1016.53
2019-02-12T00:33:00.593Z,1016.55
2019-02-12T00:34:00.587Z,1016.55
2019-02-12T00:35:00.592Z,1016.50
2019-02-12T00:36:00.566Z,1016.63
2019-02-12T00:37:00.549Z,1016.47
2019-02-12T00:38:00.546Z,1016.51
2019-02-12T00:39:00.523Z,1016.58
2019-02-12T00:40:00.530Z,1016.52
2019-02-12T00:41:00.503Z,1016.55
2019-02-12T00:42:00.490Z,1016.54
2019-02-12T00:43:00.497Z,1016.65
2019-02-12T00:44:00.475Z,1016.57
2019-02-12T00:45:00.483Z,1016.56
2019-02-12T00:46:00.449Z,1016.48
2019-02-12T00:47:00.435Z,1016.59
2019-02-12T00:48:00.445Z,1016.56
2019-02-12T00:49:00.413Z,1016.64
2019-02-12T00:50:00.421Z,1016.62
2019-02-12T00:51:00.390Z,1016.59
2019-02-12T00:52:00.385Z,1016.73
2019-02-12T00:53:00.373Z,1016.73
2019-02-12T00:54:00.378Z,1016.68
2019-02-12T00:55:00.366Z,1016.71
2019-02-12T00:56:00.340Z,1016.63
2019-02-12T00:57:00.325Z,1016.66
2019-02-12T00:58:00.311Z,1016.66
2019-02-12T00:59:00.302Z,1016.67
2019-02-12T01:00:00.327Z,1016.69
2019-02-12T01:01:00.285Z,1016.68
2019-02-12T01:02:00.272Z,1016.81
2019-02-12T01:03:00.260Z,1016.73
2019-02-12T01:04:00.266Z,1016.71
2019-02-12T01:05:00.270Z,1016.69
2019-02-12T01:06:00.225Z,1016.75
2019-02-12T01:07:00.213Z,1016.75
2019-02-12T01:08:00.201Z,1016.77
2019-02-12T01:09:00.197Z,1016.73
2019-02-12T01:10:00.222Z,1016.74
2019-02-12T01:11:00.171Z,1016.77
2019-02-12T01:12:00.173Z,1016.73
2019-02-12T01:13:00.153Z,1016.79
2019-02-12T01:14:00.156Z,1016.81
2019-02-12T01:15:00.216Z,1016.82
2019-02-12T01:16:00.163Z,1016.80
2019-02-12T01:17:00.099Z,1016.88
2019-02-12T01:18:00.092Z,1016.81
2019-02-12T01:19:00.081Z,1016.94
2019-02-12T01:20:00.104Z,1016.83
2019-02-12T01:21:00.075Z,1016.85
2019-02-12T01:22:00.041Z,1016.90
2019-02-12T01:23:00.038Z,1017.01
2019-02-12T01:24:00.019Z,1017.03
2019-02-12T01:25:00.015Z,1017.00
2019-02-12T01:26:00.027Z,1017.03
2019-02-12T01:26:59.991Z,1017.07
2019-02-12T01:27:59.976Z,1017.05
2019-02-12T01:28:59.973Z,1017.25
2019-02-12T01:29:59.963Z,1017.16
2019-02-12T01:30:59.968Z,1017.14
2019-02-12T01:31:59.932Z,1017.16
2019-02-12T01:32:59.917Z,1017.26
2019-02-12T01:33:59.908Z,1017.30
2019-02-12T01:34:59.931Z,1017.23
2019-02-12T01:35:59.910Z,1017.14
2019-02-12T01:36:59.878Z,1017.14
2019-02-12T01:37:59.872Z,1017.11
2019-02-12T01:38:59.857Z,1017.11
2019-02-12T01:39:59.843Z,1017.13
2019-02-12T01:40:59.851Z,1017.04
2019-02-12T01:41:59.821Z,1017.26
2019-02-12T01:42:59.817Z,1017.37
2019-02-12T01:43:59.799Z,1017.32
2019-02-12T01:44:59.790Z,1017.24
2019-02-12T01:45:59.797Z,1017.33
2019-02-12T01:46:59.766Z,1017.31
2019-02-12T01:47:59.753Z,1017.35
2019-02-12T01:48:59.746Z,1017.28
2019-02-12T01:49:59.732Z,1017.38
2019-02-12T01:50:59.738Z,1017.38
2019-02-12T01:51:59.708Z,1017.37
2019-02-12T01:52:59.698Z,1017.31
2019-02-12T01:53:59.698Z,1017.45
2019-02-12T01:54:59.676Z,1017.32
2019-02-12T01:55:59.681Z,1017.36
2019-02-12T01:56:59.655Z,1017.40
2019-02-12T01:57:59.643Z,1017.28
2019-02-12T01:58:59.635Z,1017.28
2019-02-12T01:59:59.619Z,1017.30
2019-02-12T02:00:59.627Z,1017.39
2019-02-12T02:01:59.597Z,1017.36
2019-02-12T02:02:59.592Z,1017.37
2019-02-12T02:03:59.587Z,1017.34
2019-02-12T02:04:59.569Z,1017.35
2019-02-12T02:05:59.589Z,1017.32
2019-02-12T02:06:59.547Z,1017.41
2019-02-12T02:07:59.527Z,1017.28
2019-02-12T02:08:59.533Z,1017.36
2019-02-12T02:09:59.511Z,1017.31
2019-02-12T02:10:59.527Z,1017.40
2019-02-12T02:11:59.488Z,1017.34
2019-02-12T02:12:59.473Z,1017.30
2019-02-12T02:13:59.469Z,1017.50
2019-02-12T02:14:59.458Z,1017.36
2019-02-12T02:15:59.449Z,1017.40
2019-02-12T02:16:59.451Z,1017.38
2019-02-12T02:17:59.417Z,1017.39
2019-02-12T02:18:59.410Z,1017.50
2019-02-12T02:19:59.399Z,1017.39
2019-02-12T02:20:59.391Z,1017.35
2019-02-12T02:21:59.391Z,1017.28
2019-02-12T02:22:59.365Z,1017.35
2019-02-12T02:23:59.350Z,1017.34
2019-02-12T02:24:59.346Z,1017.48
2019-02-12T02:25:59.335Z,1017.48
2019-02-12T02:26:59.340Z,1017.48
2019-02-12T02:27:59.315Z,1017.53
2019-02-12T02:28:59.301Z,1017.43
2019-02-12T02:29:59.290Z,1017.53
2019-02-12T02:30:59.273Z,1017.55
2019-02-12T02:31:59.283Z,1017.61
2019-02-12T02:32:59.252Z,1017.59
2019-02-12T02:33:59.251Z,1017.63
2019-02-12T02:34:59.229Z,1017.65
2019-02-12T02:35:59.220Z,1017.53
2019-02-12T02:36:59.230Z,1017.64
2019-02-12T02:37:59.196Z,1017.77
2019-02-12T02:38:59.191Z,1017.69
2019-02-12T02:39:59.178Z,1017.71
2019-02-12T02:40:59.162Z,1017.70
2019-02-12T02:41:59.181Z,1017.78
2019-02-12T02:42:59.151Z,1017.68
2019-02-12T02:43:59.132Z,1017.68
2019-02-12T02:44:59.125Z,1017.76
2019-02-12T02:45:59.105Z,1017.76
2019-02-12T02:46:59.104Z,1017.78
2019-02-12T02:47:59.456Z,1017.74
2019-02-12T02:48:59.079Z,1017.73
2019-02-12T02:49:59.064Z,1017.83
2019-02-12T02:50:59.077Z,1017.80
2019-02-12T02:51:59.041Z,1017.73
2019-02-12T02:52:59.049Z,1017.80
2019-02-12T02:53:59.019Z,1017.86
2019-02-12T02:54:59.007Z,1017.78
2019-02-12T02:55:58.993Z,1017.81
2019-02-12T02:56:58.991Z,1017.83
2019-02-12T02:57:58.990Z,1017.72
2019-02-12T02:58:58.964Z,1017.81
2019-02-12T02:59:58.951Z,1017.88
2019-02-12T03:00:58.941Z,1017.81
2019-02-12T03:01:58.937Z,1017.78
2019-02-12T03:02:58.940Z,1017.78
2019-02-12T03:03:58.905Z,1017.76
2019-02-12T03:04:58.895Z,1017.69
2019-02-12T03:05:58.895Z,1017.90
2019-02-12T03:06:58.877Z,1017.88
2019-02-12T03:07:58.891Z,1017.93
2019-02-12T03:08:58.849Z,1017.82
2019-02-12T03:09:58.840Z,1017.83
2019-02-12T03:10:58.837Z,1017.70
2019-02-12T03:11:58.823Z,1017.78
2019-02-12T03:12:58.828Z,1017.74
2019-02-12T03:13:58.805Z,1017.89
2019-02-12T03:14:58.790Z,1017.89
2019-02-12T03:15:58.775Z,1017.97
2019-02-12T03:16:58.776Z,1018.00
2019-02-12T03:17:58.775Z,1017.91
2019-02-12T03:18:58.740Z,1017.90
2019-02-12T03:19:58.733Z,1017.82
2019-02-12T03:20:58.716Z,1017.90
2019-02-12T03:22:03.628Z,1018.02
2019-02-12T03:22:59.722Z,1018.01
2019-02-12T03:23:58.681Z,1017.94
2019-02-12T03:24:58.673Z,1017.99
2019-02-12T03:25:58.662Z,1017.99
2019-02-12T03:26:58.649Z,1018.01
2019-02-12T03:27:58.658Z,1017.95
2019-02-12T03:28:58.630Z,1018.06
2019-02-12T03:29:58.626Z,1018.09
2019-02-12T03:30:58.612Z,1018.07
2019-02-12T03:31:58.608Z,1018.13
2019-02-12T03:32:58.586Z,1018.16
2019-02-12T03:33:58.604Z,1018.17
2019-02-12T03:34:58.563Z,1018.22
2019-02-12T03:35:58.551Z,1018.19
2019-02-12T03:36:58.547Z,1018.27
2019-02-12T03:37:58.531Z,1018.30
2019-02-12T03:38:58.537Z,1018.23
2019-02-12T03:39:58.505Z,1018.20
2019-02-12T03:40:58.494Z,1018.21
2019-02-12T03:41:58.484Z,1018.15
2019-02-12T03:42:58.471Z,1018.21
2019-02-12T03:43:58.498Z,1018.24
2019-02-12T03:44:58.453Z,1018.23
2019-02-12T03:45:58.442Z,1018.26
2019-02-12T03:46:58.431Z,1018.32
2019-02-12T03:47:58.421Z,1018.25
2019-02-12T03:48:58.427Z,1018.18
2019-02-12T03:49:58.399Z,1018.17
2019-02-12T03:50:58.383Z,1018.19
2019-02-12T03:51:58.373Z,1018.22
2019-02-12T03:52:58.362Z,1018.21
2019-02-12T03:53:58.367Z,1018.21
2019-02-12T03:54:58.337Z,1018.22
2019-02-12T03:55:58.327Z,1018.27
2019-02-12T03:56:58.314Z,1018.21
2019-02-12T03:57:58.306Z,1018.23
2019-02-12T03:58:58.330Z,1018.24
2019-02-12T03:59:58.279Z,1018.23
2019-02-12T04:00:58.272Z,1018.32
2019-02-12T04:01:58.261Z,1018.37
2019-02-12T04:02:58.254Z,1018.17
2019-02-12T04:03:58.265Z,1018.29
2019-02-12T04:04:58.225Z,1018.28
2019-02-12T04:05:58.219Z,1018.23
2019-02-12T04:06:58.205Z,1018.30
2019-02-12T04:07:58.192Z,1018.26
2019-02-12T04:08:58.343Z,1018.23
2019-02-12T04:09:58.175Z,1018.31
2019-02-12T04:10:58.163Z,1018.29
2019-02-12T04:11:58.152Z,1018.25
2019-02-12T04:12:58.134Z,1018.24
2019-02-12T04:13:58.145Z,1018.32
2019-02-12T04:14:58.127Z,1018.18
2019-02-12T04:15:58.111Z,1018.12
2019-02-12T04:16:58.100Z,1018.18
2019-02-12T04:17:58.083Z,1018.22
2019-02-12T04:18:58.090Z,1018.17
2019-02-12T04:19:58.063Z,1018.24
2019-02-12T04:20:58.051Z,1018.19
2019-02-12T04:21:58.047Z,1018.20
2019-02-12T04:22:58.045Z,1018.17
2019-02-12T04:23:58.033Z,1018.14
2019-02-12T04:24:58.009Z,1018.16
2019-02-12T04:25:57.991Z,1018.16
2019-02-12T04:26:57.987Z,1018.19
2019-02-12T04:27:58.034Z,1018.22
2019-02-12T04:28:57.965Z,1018.15
2019-02-12T04:29:57.970Z,1018.12
2019-02-12T04:30:57.936Z,1018.10
2019-02-12T04:31:57.933Z,1018.12
2019-02-12T04:32:57.915Z,1018.06
2019-02-12T04:33:57.904Z,1018.08
2019-02-12T04:34:57.907Z,1018.13
2019-02-12T04:35:57.882Z,1018.12
2019-02-12T04:36:57.869Z,1018.14
2019-02-12T04:37:57.870Z,1018.19
2019-02-12T04:38:57.854Z,1018.20
2019-02-12T04:39:57.852Z,1018.25
2019-02-12T04:40:57.832Z,1018.27
2019-02-12T04:41:57.815Z,1018.22
2019-02-12T04:42:57.810Z,1018.31
2019-02-12T04:43:57.792Z,1018.33
2019-02-12T04:44:57.803Z,1018.39
2019-02-12T04:45:57.773Z,1018.39
2019-02-12T04:46:57.760Z,1018.43
2019-02-12T04:47:57.754Z,1018.38
2019-02-12T04:51:28.349Z,1018.46
2019-02-12T04:52:54.811Z,1018.52
2019-02-12T04:53:28.763Z,1018.43
2019-02-12T04:54:27.186Z,1018.29
2019-02-12T04:55:27.190Z,1018.40
2019-02-12T04:56:27.167Z,1018.28
2019-02-12T04:57:27.156Z,1018.20
2019-02-12T04:58:27.148Z,1018.20
2019-02-12T04:59:27.129Z,1018.26
2019-02-12T05:00:27.138Z,1018.17
2019-02-12T05:01:27.113Z,1018.19
2019-02-12T05:02:27.096Z,1018.24
2019-02-12T05:03:27.094Z,1018.28
2019-02-12T05:04:27.079Z,1018.28
2019-02-12T05:05:27.092Z,1018.27
2019-02-12T05:06:27.055Z,1018.26
2019-02-12T05:07:27.051Z,1018.30
2019-02-12T05:08:27.156Z,1018.32
2019-02-12T05:09:27.040Z,1018.32
2019-02-12T05:10:27.036Z,1018.35
2019-02-12T05:11:27.002Z,1018.35
2019-02-12T05:12:26.996Z,1018.44
2019-02-12T05:13:26.981Z,1018.49
2019-02-12T05:14:26.965Z,1018.76
2019-02-12T05:15:26.976Z,1018.48
2019-02-12T05:16:26.964Z,1018.56
2019-02-12T05:17:26.936Z,1018.59
2019-02-12T05:18:26.928Z,1018.62
2019-02-12T05:19:26.915Z,1018.70
2019-02-12T05:20:26.900Z,1018.66
2019-02-12T05:21:26.908Z,1018.76
2019-02-12T05:22:26.882Z,1018.61
2019-02-12T05:23:26.870Z,1018.65
2019-02-12T05:24:26.857Z,1018.69
2019-02-12T05:25:26.865Z,1018.72
2019-02-12T05:26:26.866Z,1018.70
2019-02-12T05:27:26.829Z,1018.70
2019-02-12T05:28:26.821Z,1018.84
2019-02-12T05:29:26.810Z,1018.72
2019-02-12T05:30:33.465Z,1018.67
2019-02-12T05:31:26.801Z,1018.63
2019-02-12T05:32:26.774Z,1018.72
2019-02-12T05:33:26.759Z,1018.70
2019-02-12T05:34:26.754Z,1018.71
2019-02-12T05:35:26.753Z,1018.75
2019-02-12T05:36:26.752Z,1018.74
2019-02-12T05:37:26.711Z,1018.77
2019-02-12T05:38:26.701Z,1018.89
2019-02-12T05:39:26.700Z,1018.85
2019-02-12T05:40:26.685Z,1018.90
2019-02-12T05:41:26.829Z,1018.93
2019-02-12T05:42:26.662Z,1018.98
2019-02-12T05:43:26.650Z,1019.00
2019-02-12T05:44:26.638Z,1018.97
2019-02-12T05:45:26.625Z,1019.06
2019-02-12T05:46:26.647Z,1019.13
2019-02-12T05:47:26.603Z,1019.14
2019-02-12T05:48:26.611Z,1019.15
2019-02-12T05:49:26.583Z,1019.14
2019-02-12T05:50:26.596Z,1019.17
2019-02-12T05:51:26.615Z,1019.21
2019-02-12T05:52:26.555Z,1019.24
2019-02-12T05:53:26.539Z,1019.32
2019-02-12T05:54:26.532Z,1019.39
2019-02-12T05:55:26.517Z,1019.36
2019-02-12T05:56:26.531Z,1019.41
2019-02-12T05:57:26.496Z,1019.45
2019-02-12T05:58:26.483Z,1019.42
2019-02-12T05:59:26.475Z,1019.45
2019-02-12T06:00:26.471Z,1019.48
2019-02-12T06:01:26.453Z,1019.48
2019-02-12T06:02:26.462Z,1019.57
2019-02-12T06:03:26.434Z,1019.54
2019-02-12T06:04:26.443Z,1019.56
2019-02-12T06:05:26.410Z,1019.63
2019-02-12T06:06:26.401Z,1019.57
2019-02-12T06:07:26.412Z,1019.65
2019-02-12T06:08:26.376Z,1019.66
2019-02-12T06:09:33.305Z,1019.69
2019-02-12T06:10:26.386Z,1019.70
2019-02-12T06:20:40.197Z,1019.87
2019-02-12T06:21:41.129Z,1019.91
2019-02-12T06:25:09.318Z,1019.96
2019-02-12T06:26:09.186Z,1019.95
2019-02-12T06:27:09.166Z,1019.98
2019-02-12T06:28:16.154Z,1020.01
2019-02-12T06:29:09.146Z,1019.98
2019-02-12T06:32:48.488Z,1020.03
2019-02-12T06:43:18.810Z,1020.35
2019-02-12T06:44:18.777Z,1020.38
2019-02-12T06:45:18.773Z,1020.33
2019-02-12T06:46:18.826Z,1020.39
2019-02-12T06:47:18.748Z,1020.36
2019-02-12T06:48:18.756Z,1020.40
2019-02-12T06:49:18.724Z,1020.47
2019-02-12T06:50:18.714Z,1020.45
2019-02-12T06:51:18.705Z,1020.44
2019-02-12T06:52:18.717Z,1020.50
2019-02-12T06:53:18.696Z,1020.41
2019-02-12T06:54:18.677Z,1020.45
2019-02-12T06:55:18.658Z,1020.43
2019-02-12T06:56:18.644Z,1020.45
2019-02-12T06:57:18.632Z,1020.40
2019-02-12T06:58:18.647Z,1020.46
2019-02-12T06:59:18.612Z,1020.44
2019-02-12T07:00:18.616Z,1020.41
2019-02-12T07:01:18.593Z,1020.48
2019-02-12T07:02:18.590Z,1020.48
2019-02-12T07:03:18.570Z,1020.47
2019-02-12T07:04:18.579Z,1020.57
2019-02-12T07:05:18.550Z,1020.52
2019-02-12T07:06:18.533Z,1020.50
2019-02-12T07:07:18.544Z,1020.56
2019-02-12T07:08:18.515Z,1020.57
2019-02-12T07:09:18.523Z,1020.59
2019-02-12T07:10:18.498Z,1020.58
2019-02-12T07:11:18.484Z,1020.59
2019-02-12T07:12:18.467Z,1020.63
2019-02-12T07:13:18.461Z,1020.66
2019-02-12T07:14:18.467Z,1020.73
2019-02-12T07:15:18.437Z,1020.78
2019-02-12T07:16:18.477Z,1020.82
2019-02-12T07:17:18.420Z,1020.82
2019-02-12T07:18:18.404Z,1020.86
2019-02-12T07:19:18.410Z,1020.84
2019-02-12T07:20:19.282Z,1020.86
2019-02-12T07:21:18.369Z,1020.91
2019-02-12T07:22:18.357Z,1020.96
2019-02-12T07:23:21.316Z,1020.87
2019-02-12T07:24:18.362Z,1020.88
2019-02-12T07:25:28.211Z,1020.84
2019-02-12T07:26:19.317Z,1020.86
2019-02-12T07:27:18.326Z,1020.86
2019-02-12T07:28:18.289Z,1020.94
2019-02-12T07:29:18.304Z,1020.94
2019-02-12T07:30:18.270Z,1021.02
2019-02-12T07:31:18.277Z,1021.01
2019-02-12T07:32:18.250Z,1021.01
2019-02-12T07:33:18.237Z,1020.96
2019-02-12T07:34:18.264Z,1020.96
2019-02-12T07:35:18.241Z,1021.04
2019-02-12T07:36:18.214Z,1020.98
2019-02-12T07:37:18.193Z,1021.03
2019-02-12T07:38:18.196Z,1021.01
2019-02-12T07:39:18.191Z,1021.03
2019-02-12T07:40:18.175Z,1021.00
2019-02-12T07:41:20.137Z,1021.07
2019-02-12T07:42:18.143Z,1021.11
2019-02-12T07:43:18.129Z,1021.13
2019-02-12T07:44:18.149Z,1021.14
2019-02-12T07:45:18.106Z,1021.14
2019-02-12T07:46:18.114Z,1021.12
2019-02-12T07:47:18.082Z,1021.11
2019-02-12T07:48:18.081Z,1021.16
2019-02-12T07:49:18.084Z,1021.10
2019-02-12T07:50:18.057Z,1021.06
2019-02-12T07:51:18.045Z,1021.13
2019-02-12T07:52:18.028Z,1021.13
2019-02-12T07:53:18.020Z,1021.13
2019-02-12T07:54:18.036Z,1021.20
2019-02-12T07:55:18.016Z,1021.27
2019-02-12T07:56:17.991Z,1021.23
2019-02-12T07:57:17.974Z,1021.22
2019-02-12T07:58:17.971Z,1021.17
2019-02-12T07:59:17.971Z,1021.09
2019-02-12T08:00:17.967Z,1021.17
2019-02-12T08:01:17.931Z,1021.15
2019-02-12T08:04:36.053Z,1021.25
2019-02-12T08:13:54.420Z,1021.51
2019-02-12T08:14:54.402Z,1021.48
2019-02-12T08:15:54.956Z,1021.51
2019-02-12T08:16:54.358Z,1021.58
2019-02-12T08:17:54.349Z,1021.52
2019-02-12T08:18:54.352Z,1021.56
2019-02-12T08:19:54.353Z,1021.53
2019-02-12T08:20:54.327Z,1021.54
2019-02-12T08:21:54.327Z,1021.58
2019-02-12T08:22:54.793Z,1021.61
2019-02-12T08:23:54.284Z,1021.60
2019-02-12T08:24:54.293Z,1021.64
2019-02-12T08:25:54.326Z,1021.67
2019-02-12T08:26:54.253Z,1021.69
2019-02-12T08:27:54.238Z,1021.74
2019-02-12T08:28:54.226Z,1021.73
2019-02-12T08:29:54.232Z,1021.70
2019-02-12T08:30:54.245Z,1021.77
2019-02-12T08:31:54.230Z,1021.72
2019-02-12T08:32:54.202Z,1021.72
2019-02-12T08:33:54.173Z,1021.77
2019-02-12T08:34:54.161Z,1021.74
2019-02-12T08:35:57.369Z,1021.80
2019-02-12T08:36:54.161Z,1021.71
2019-02-12T08:37:54.127Z,1021.79
2019-02-12T08:38:55.022Z,1021.81
2019-02-12T08:39:55.436Z,1021.85
2019-02-12T08:40:54.096Z,1021.91
2019-02-12T08:41:54.106Z,1021.86
2019-02-12T08:42:54.076Z,1021.91
2019-02-12T08:43:54.060Z,1021.88
2019-02-12T08:44:54.050Z,1021.88
2019-02-12T08:45:54.036Z,1021.82
2019-02-12T08:46:54.040Z,1021.90
2019-02-12T08:47:54.797Z,1021.93
2019-02-12T08:48:54.007Z,1021.97
2019-02-12T08:49:53.997Z,1022.00
2019-02-12T08:50:54.084Z,1021.94
2019-02-12T08:51:54.000Z,1021.95
2019-02-12T08:52:53.960Z,1022.00
2019-02-12T08:53:53.971Z,1021.95
2019-02-12T08:54:53.945Z,1021.98
2019-02-12T08:55:53.945Z,1021.98
2019-02-12T08:56:53.910Z,1021.97
2019-02-12T08:57:53.926Z,1022.00
2019-02-12T08:58:53.944Z,1021.95
2019-02-12T08:59:53.884Z,1021.99
2019-02-12T09:00:53.889Z,1021.98
2019-02-12T09:01:53.865Z,1021.94
2019-02-12T09:02:53.921Z,1022.00
2019-02-12T09:03:53.839Z,1022.12
2019-02-12T09:04:53.829Z,1022.11
2019-02-12T09:05:53.814Z,1022.08
2019-02-12T09:06:53.801Z,1022.13
2019-02-12T09:07:53.818Z,1022.10
2019-02-12T09:08:53.794Z,1022.11
2019-02-12T09:09:53.771Z,1022.19
2019-02-12T09:10:53.761Z,1022.11
2019-02-12T09:11:53.753Z,1022.14
2019-02-12T09:12:53.753Z,1022.16
2019-02-12T09:13:53.718Z,1022.19
2019-02-12T09:14:53.710Z,1022.17
2019-02-12T09:15:53.705Z,1022.11
2019-02-12T09:16:53.692Z,1022.14
2019-02-12T09:17:53.698Z,1022.21
2019-02-12T09:18:53.667Z,1022.16
2019-02-12T09:19:53.661Z,1022.22
2019-02-12T09:20:53.647Z,1022.24
2019-02-12T09:21:53.635Z,1022.18
2019-02-12T09:22:53.645Z,1022.25
2019-02-12T09:24:00.225Z,1022.23
2019-02-12T09:24:54.600Z,1022.26
2019-02-12T09:25:53.620Z,1022.30
2019-02-12T09:26:53.579Z,1022.27
2019-02-12T09:27:53.565Z,1022.30
2019-02-12T09:28:53.582Z,1022.34
2019-02-12T09:29:53.549Z,1022.40
2019-02-12T09:30:53.530Z,1022.33
2019-02-12T09:31:54.301Z,1022.40
2019-02-12T09:32:53.550Z,1022.35
2019-02-12T09:33:53.520Z,1022.38
2019-02-12T09:34:53.491Z,1022.42
2019-02-12T09:35:53.482Z,1022.41
2019-02-12T09:36:53.471Z,1022.47
2019-02-12T09:37:53.461Z,1022.50
2019-02-12T09:38:53.458Z,1022.53
2019-02-12T09:39:53.492Z,1022.53
2019-02-12T09:40:53.422Z,1022.53
2019-02-12T09:41:53.419Z,1022.57
2019-02-12T09:42:53.399Z,1022.58
2019-02-12T09:43:53.407Z,1022.67
2019-02-12T09:44:53.381Z,1022.72
2019-02-12T09:45:53.363Z,1022.72
2019-02-12T09:46:53.373Z,1022.70
2019-02-12T09:47:53.353Z,1022.74
2019-02-12T09:48:55.296Z,1022.83
2019-02-12T09:49:54.803Z,1022.81
2019-02-12T09:50:53.312Z,1022.86
2019-02-12T09:51:53.324Z,1022.73
2019-02-12T09:52:53.286Z,1022.84
2019-02-12T09:53:53.274Z,1022.84
2019-02-12T09:54:54.352Z,1022.85
2019-02-12T09:55:53.252Z,1022.85
2019-02-12T09:56:53.242Z,1022.83
2019-02-12T09:57:53.234Z,1022.94
2019-02-12T09:58:53.221Z,1022.98
2019-02-12T09:59:53.226Z,1022.99
2019-02-12T10:00:53.195Z,1023.01
2019-02-12T10:01:53.185Z,1022.93
2019-02-12T10:02:53.178Z,1022.97
2019-02-12T10:03:53.169Z,1022.92
2019-02-12T10:04:53.171Z,1023.00
2019-02-12T10:05:53.141Z,1023.02
2019-02-12T10:06:53.132Z,1023.04
2019-02-12T10:07:53.122Z,1023.05
2019-02-12T10:08:55.869Z,1023.12
2019-02-12T10:09:53.174Z,1023.17
2019-02-12T10:10:53.088Z,1023.13
2019-02-12T10:11:53.076Z,1023.15
2019-02-12T10:12:53.061Z,1023.23
2019-02-12T10:13:53.053Z,1023.16
2019-02-12T10:14:53.058Z,1023.16
2019-02-12T10:25:12.158Z,1023.23
2019-02-12T10:26:12.032Z,1023.12
2019-02-12T10:27:12.036Z,1023.19
2019-02-12T10:28:12.009Z,1023.16
2019-02-12T10:29:12.039Z,1023.21
2019-02-12T10:34:02.043Z,1023.27
2019-02-12T10:35:01.967Z,1023.20
2019-02-12T10:36:01.985Z,1023.28
2019-02-12T10:37:01.945Z,1023.33
2019-02-12T10:38:01.931Z,1023.25
2019-02-12T10:39:01.924Z,1023.26
2019-02-12T10:40:01.914Z,1023.27
2019-02-12T10:41:01.923Z,1023.26
2019-02-12T10:42:01.886Z,1023.23
2019-02-12T10:43:01.911Z,1023.28
2019-02-12T10:44:01.867Z,1023.41
2019-02-12T10:45:01.873Z,1023.35
2019-02-12T10:46:01.844Z,1023.45
2019-02-12T10:47:01.838Z,1023.42
2019-02-12T10:48:01.845Z,1023.42
2019-02-12T10:49:01.818Z,1023.38
2019-02-12T10:50:01.799Z,1023.43
2019-02-12T10:51:01.794Z,1023.33
2019-02-12T10:52:01.802Z,1023.33
2019-02-12T10:53:01.767Z,1023.25
2019-02-12T10:54:01.764Z,1023.21
2019-02-12T10:55:01.742Z,1023.26
2019-02-12T10:56:01.731Z,1023.08
2019-02-12T10:57:01.737Z,1023.10
2019-02-12T10:58:01.709Z,1023.37
2019-02-12T10:59:01.704Z,1023.35
2019-02-12T11:00:01.693Z,1023.36
2019-02-12T11:01:01.681Z,1023.12
2019-02-12T11:02:01.677Z,1023.21
2019-02-12T11:03:01.654Z,1023.19
2019-02-12T11:04:01.668Z,1023.43
2019-02-12T11:05:01.636Z,1023.20
2019-02-12T11:06:01.628Z,1023.27
2019-02-12T11:07:01.638Z,1023.19
2019-02-12T11:08:01.620Z,1023.18
2019-02-12T11:09:01.588Z,1023.14
2019-02-12T11:10:01.575Z,1023.13
2019-02-12T11:11:01.560Z,1023.21
2019-02-12T11:12:01.575Z,1023.19
2019-02-12T11:13:01.569Z,1023.24
2019-02-12T11:14:01.534Z,1023.47
2019-02-12T11:15:01.520Z,1023.49
2019-02-12T11:16:01.512Z,1023.45
2019-02-12T11:17:01.497Z,1023.39
2019-02-12T11:18:01.511Z,1023.32
2019-02-12T11:19:01.480Z,1023.37
2019-02-12T11:20:01.463Z,1023.37
2019-02-12T11:21:01.456Z,1023.36
2019-02-12T11:22:01.439Z,1023.30
2019-02-12T11:23:01.610Z,1023.32
2019-02-12T11:24:01.436Z,1023.39
2019-02-12T11:25:01.413Z,1023.43
2019-02-12T11:26:01.398Z,1023.19
2019-02-12T11:27:01.389Z,1023.18
2019-02-12T11:28:01.397Z,1023.42
2019-02-12T11:29:01.366Z,1023.24
2019-02-12T11:30:01.361Z,1023.29
2019-02-12T11:31:01.361Z,1023.29
2019-02-12T11:32:02.077Z,1023.47
2019-02-12T11:33:02.376Z,1023.40
2019-02-12T11:34:01.328Z,1023.49
2019-02-12T11:35:01.298Z,1023.41
2019-02-12T11:36:01.287Z,1023.46
2019-02-12T11:37:01.277Z,1023.47
2019-02-12T11:38:01.266Z,1023.51
2019-02-12T11:39:01.277Z,1023.51
2019-02-12T11:40:01.251Z,1023.46
2019-02-12T11:41:01.230Z,1023.43
2019-02-12T11:42:01.217Z,1023.14
2019-02-12T11:43:01.214Z,1023.38
2019-02-12T11:44:01.219Z,1023.46
2019-02-12T11:45:01.201Z,1023.39
2019-02-12T11:46:01.177Z,1023.25
2019-02-12T11:47:01.166Z,1023.36
2019-02-12T11:48:01.152Z,1023.31
2019-02-12T11:49:01.173Z,1023.29
2019-02-12T11:50:01.130Z,1023.34
2019-02-12T11:51:01.118Z,1023.32
2019-02-12T11:52:01.117Z,1023.36
2019-02-12T11:53:01.097Z,1023.29
2019-02-12T11:54:01.115Z,1023.40
2019-02-12T11:55:01.083Z,1023.40
2019-02-12T11:56:01.064Z,1023.40
2019-02-12T11:57:01.058Z,1023.43
2019-02-12T11:58:01.045Z,1023.59
2019-02-12T11:59:01.049Z,1023.51
2019-02-12T12:00:01.039Z,1023.51
2019-02-12T12:01:01.013Z,1023.48
2019-02-12T12:02:00.995Z,1023.50
2019-02-12T12:03:00.987Z,1023.53
2019-02-12T12:04:00.973Z,1023.48
2019-02-12T12:05:01.061Z,1023.49
2019-02-12T12:06:00.972Z,1023.56
2019-02-12T12:07:00.936Z,1023.53
2019-02-12T12:08:00.947Z,1023.52
2019-02-12T12:09:00.916Z,1023.55
2019-02-12T12:10:02.571Z,1023.59
2019-02-12T12:11:00.894Z,1023.51
2019-02-12T12:12:00.889Z,1023.54
2019-02-12T12:13:00.879Z,1023.52
2019-02-12T12:14:00.862Z,1023.54
2019-02-12T12:15:00.872Z,1023.58
2019-02-12T12:16:00.842Z,1023.62
2019-02-12T12:17:00.826Z,1023.55
2019-02-12T12:18:00.817Z,1023.63
2019-02-12T12:19:00.802Z,1023.65
2019-02-12T12:20:00.814Z,1023.64
2019-02-12T12:21:00.783Z,1023.70
2019-02-12T12:22:00.773Z,1023.73
2019-02-12T12:23:00.765Z,1023.74
2019-02-12T12:24:00.753Z,1023.73
2019-02-12T12:25:00.753Z,1023.78
2019-02-12T12:26:00.733Z,1023.79
2019-02-12T12:27:00.721Z,1023.80
2019-02-12T12:28:00.707Z,1023.79
2019-02-12T12:29:00.695Z,1023.79
2019-02-12T12:30:00.718Z,1023.69
2019-02-12T12:31:00.673Z,1023.76
2019-02-12T12:32:00.658Z,1023.82
2019-02-12T12:33:00.652Z,1023.84
2019-02-12T12:34:00.642Z,1023.90
2019-02-12T12:35:00.652Z,1023.77
2019-02-12T12:36:00.616Z,1023.80
2019-02-12T12:37:00.613Z,1023.79
2019-02-12T12:38:00.611Z,1023.87
2019-02-12T12:39:00.584Z,1023.88
2019-02-12T12:40:00.607Z,1023.83
2019-02-12T12:41:00.573Z,1023.87
2019-02-12T12:42:00.553Z,1023.94
2019-02-12T12:43:00.545Z,1023.90
2019-02-12T12:44:00.539Z,1023.95
2019-02-12T12:45:00.550Z,1024.05
2019-02-12T12:46:00.520Z,1024.00
2019-02-12T12:47:00.496Z,1024.04
2019-02-12T12:48:00.493Z,1024.00
2019-02-12T12:49:00.478Z,1023.96
2019-02-12T12:50:00.486Z,1024.07
2019-02-12T12:51:00.460Z,1024.05
2019-02-12T12:52:00.473Z,1024.06
2019-02-12T12:53:00.432Z,1024.02
2019-02-12T12:54:00.422Z,1024.11
2019-02-12T12:55:00.472Z,1024.11